sensor_id;sensor_type;location;lat;lon;timestamp;pressure;altitude;pressure_sealevel;temperature;humidity
75188;BME280;63762;51.334;22.108;2023-08-08T00:08:56;101000.82;;;15.41;76.97
75188;BME280;63762;51.334;22.108;2023-08-08T00:19:03;101009.68;;;15.43;77.82
75188;BME280;63762;51.334;22.108;2023-08-08T00:29:11;101015.10;;;15.43;78.19
75188;BME280;63762;51.334;22.108;2023-08-08T00:39:18;101020.81;;;15.40;78.26
75188;BME280;63762;51.334;22.108;2023-08-08T00:49:25;101021.54;;;15.42;77.95
75188;BME280;63762;51.334;22.108;2023-08-08T00:59:32;101037.08;;;15.40;78.50
75188;BME280;63762;51.334;22.108;2023-08-08T01:10:28;101052.34;;;15.41;78.71
75188;BME280;63762;51.334;22.108;2023-08-08T01:19:53;101060.18;;;15.34;78.63
75188;BME280;63762;51.334;22.108;2023-08-08T01:29:55;101064.48;;;15.27;78.57
75188;BME280;63762;51.334;22.108;2023-08-08T01:40:01;101076.02;;;15.10;79.12
75188;BME280;63762;51.334;22.108;2023-08-08T01:50:08;101078.45;;;15.04;79.52
75188;BME280;63762;51.334;22.108;2023-08-08T02:00:15;101084.99;;;14.92;79.43
75188;BME280;63762;51.334;22.108;2023-08-08T02:10:22;101104.97;;;14.91;79.32
75188;BME280;63762;51.334;22.108;2023-08-08T02:20:29;101120.08;;;14.84;79.08
75188;BME280;63762;51.334;22.108;2023-08-08T02:30:37;101126.31;;;14.75;78.80
75188;BME280;63762;51.334;22.108;2023-08-08T02:40:43;101139.85;;;14.65;78.97
75188;BME280;63762;51.334;22.108;2023-08-08T02:50:50;101154.22;;;14.66;78.78
75188;BME280;63762;51.334;22.108;2023-08-08T03:00:57;101160.64;;;14.65;78.67
75188;BME280;63762;51.334;22.108;2023-08-08T03:11:04;101190.16;;;14.68;78.27
75188;BME280;63762;51.334;22.108;2023-08-08T03:21:12;101196.02;;;14.73;78.04
75188;BME280;63762;51.334;22.108;2023-08-08T03:31:20;101218.68;;;14.72;77.75
75188;BME280;63762;51.334;22.108;2023-08-08T03:41:26;101238.05;;;14.67;77.14
75188;BME280;63762;51.334;22.108;2023-08-08T03:51:33;101250.82;;;14.56;77.12
75188;BME280;63762;51.334;22.108;2023-08-08T04:01:40;101263.92;;;14.51;76.98
75188;BME280;63762;51.334;22.108;2023-08-08T04:11:47;101288.04;;;14.33;77.46
75188;BME280;63762;51.334;22.108;2023-08-08T04:21:54;101300.48;;;14.45;77.11
75188;BME280;63762;51.334;22.108;2023-08-08T04:32:02;101313.10;;;14.56;76.31
75188;BME280;63762;51.334;22.108;2023-08-08T04:42:09;101313.02;;;14.67;75.87
75188;BME280;63762;51.334;22.108;2023-08-08T04:52:16;101314.79;;;14.77;75.49
75188;BME280;63762;51.334;22.108;2023-08-08T05:02:23;101335.19;;;14.81;74.58
75188;BME280;63762;51.334;22.108;2023-08-08T05:12:30;101358.21;;;14.87;73.93
75188;BME280;63762;51.334;22.108;2023-08-08T05:22:37;101379.23;;;14.94;73.84
75188;BME280;63762;51.334;22.108;2023-08-08T05:32:45;101385.61;;;14.93;73.45
75188;BME280;63762;51.334;22.108;2023-08-08T05:42:51;101402.60;;;14.95;73.60
75188;BME280;63762;51.334;22.108;2023-08-08T05:52:58;101408.60;;;14.99;72.34
75188;BME280;63762;51.334;22.108;2023-08-08T06:03:06;101420.66;;;15.36;71.27
75188;BME280;63762;51.334;22.108;2023-08-08T06:13:13;101398.68;;;15.69;70.63
75188;BME280;63762;51.334;22.108;2023-08-08T06:23:20;101417.13;;;15.75;70.50
75188;BME280;63762;51.334;22.108;2023-08-08T06:33:27;101414.47;;;15.94;68.80
75188;BME280;63762;51.334;22.108;2023-08-08T06:43:34;101422.20;;;15.99;68.76
75188;BME280;63762;51.334;22.108;2023-08-08T06:53:41;101420.52;;;16.36;66.40
75188;BME280;63762;51.334;22.108;2023-08-08T07:03:48;101422.64;;;16.23;65.95
75188;BME280;63762;51.334;22.108;2023-08-08T07:13:56;101418.85;;;16.54;68.32
75188;BME280;63762;51.334;22.108;2023-08-08T07:24:03;101425.14;;;17.38;64.64
75188;BME280;63762;51.334;22.108;2023-08-08T07:34:10;101430.77;;;17.73;61.77
75188;BME280;63762;51.334;22.108;2023-08-08T07:44:17;101430.55;;;17.57;60.56
75188;BME280;63762;51.334;22.108;2023-08-08T07:54:24;101435.49;;;17.25;59.63
75188;BME280;63762;51.334;22.108;2023-08-08T08:04:31;101433.13;;;17.86;61.85
75188;BME280;63762;51.334;22.108;2023-08-08T08:14:38;101437.68;;;18.40;55.33
75188;BME280;63762;51.334;22.108;2023-08-08T08:24:45;101430.82;;;18.88;55.85
75188;BME280;63762;51.334;22.108;2023-08-08T08:34:53;101444.66;;;19.38;54.67
75188;BME280;63762;51.334;22.108;2023-08-08T08:45:02;101423.66;;;20.06;51.35
75188;BME280;63762;51.334;22.108;2023-08-08T08:55:07;101417.75;;;19.76;51.23
75188;BME280;63762;51.334;22.108;2023-08-08T09:05:15;101437.48;;;19.62;50.66
75188;BME280;63762;51.334;22.108;2023-08-08T09:15:21;101437.51;;;19.19;51.26
75188;BME280;63762;51.334;22.108;2023-08-08T09:25:28;101437.97;;;19.58;47.24
75188;BME280;63762;51.334;22.108;2023-08-08T09:35:38;101433.22;;;20.02;48.85
75188;BME280;63762;51.334;22.108;2023-08-08T09:45:42;101438.88;;;20.98;47.68
75188;BME280;63762;51.334;22.108;2023-08-08T09:55:49;101458.55;;;20.12;44.91
75188;BME280;63762;51.334;22.108;2023-08-08T10:05:56;101448.74;;;20.01;45.35
75188;BME280;63762;51.334;22.108;2023-08-08T10:16:07;101449.16;;;20.14;46.53
75188;BME280;63762;51.334;22.108;2023-08-08T10:26:17;101458.13;;;19.99;46.67
75188;BME280;63762;51.334;22.108;2023-08-08T10:36:19;101443.28;;;20.01;45.14
75188;BME280;63762;51.334;22.108;2023-08-08T10:46:30;101452.00;;;20.70;43.30
75188;BME280;63762;51.334;22.108;2023-08-08T10:56:34;101460.06;;;20.80;44.70
75188;BME280;63762;51.334;22.108;2023-08-08T11:06:39;101448.24;;;21.43;44.31
75188;BME280;63762;51.334;22.108;2023-08-08T11:16:48;101463.31;;;20.91;41.09
75188;BME280;63762;51.334;22.108;2023-08-08T11:26:58;101457.12;;;20.49;43.06
75188;BME280;63762;51.334;22.108;2023-08-08T11:40:10;101459.89;;;20.89;41.44
75188;BME280;63762;51.334;22.108;2023-08-08T11:50:19;101459.94;;;21.13;39.31
75188;BME280;63762;51.334;22.108;2023-08-08T12:00:27;101451.35;;;21.24;39.42
75188;BME280;63762;51.334;22.108;2023-08-08T12:10:34;101465.21;;;21.07;42.24
75188;BME280;63762;51.334;22.108;2023-08-08T12:20:38;101460.09;;;21.28;43.59
75188;BME280;63762;51.334;22.108;2023-08-08T12:30:45;101444.95;;;21.64;40.84
75188;BME280;63762;51.334;22.108;2023-08-08T12:40:53;101451.85;;;21.44;41.20
75188;BME280;63762;51.334;22.108;2023-08-08T12:51:00;101458.88;;;21.38;41.56
75188;BME280;63762;51.334;22.108;2023-08-08T13:01:06;101460.70;;;22.17;40.04
75188;BME280;63762;51.334;22.108;2023-08-08T13:11:14;101455.95;;;22.03;39.40
75188;BME280;63762;51.334;22.108;2023-08-08T13:21:21;101456.40;;;21.75;38.71
75188;BME280;63762;51.334;22.108;2023-08-08T13:31:28;101455.01;;;21.87;38.49
75188;BME280;63762;51.334;22.108;2023-08-08T13:41:35;101466.34;;;21.68;39.05
75188;BME280;63762;51.334;22.108;2023-08-08T13:51:42;101468.77;;;21.47;41.54
75188;BME280;63762;51.334;22.108;2023-08-08T14:01:49;101482.51;;;21.07;42.07
75188;BME280;63762;51.334;22.108;2023-08-08T14:11:56;101496.30;;;20.74;43.48
75188;BME280;63762;51.334;22.108;2023-08-08T14:22:03;101516.66;;;19.96;46.25
75188;BME280;63762;51.334;22.108;2023-08-08T14:32:10;101515.73;;;19.54;47.94
75188;BME280;63762;51.334;22.108;2023-08-08T14:42:18;101521.61;;;19.67;46.47
75188;BME280;63762;51.334;22.108;2023-08-08T14:52:25;101529.55;;;19.78;46.25
75188;BME280;63762;51.334;22.108;2023-08-08T15:02:32;101518.50;;;19.87;44.87
75188;BME280;63762;51.334;22.108;2023-08-08T15:12:39;101517.24;;;19.74;46.41
75188;BME280;63762;51.334;22.108;2023-08-08T15:22:46;101523.38;;;19.76;45.79
75188;BME280;63762;51.334;22.108;2023-08-08T15:32:53;101506.41;;;19.90;46.33
75188;BME280;63762;51.334;22.108;2023-08-08T15:43:01;101504.67;;;19.89;47.00
75188;BME280;63762;51.334;22.108;2023-08-08T15:53:07;101507.58;;;19.87;46.37
75188;BME280;63762;51.334;22.108;2023-08-08T16:03:15;101513.82;;;20.39;44.68
75188;BME280;63762;51.334;22.108;2023-08-08T16:13:22;101513.49;;;20.42;45.04
75188;BME280;63762;51.334;22.108;2023-08-08T16:23:29;101519.07;;;20.33;46.52
75188;BME280;63762;51.334;22.108;2023-08-08T16:33:36;101525.94;;;20.94;46.59
75188;BME280;63762;51.334;22.108;2023-08-08T16:43:43;101519.09;;;24.70;39.20
75188;BME280;63762;51.334;22.108;2023-08-08T16:53:50;101522.04;;;28.83;31.58
75188;BME280;63762;51.334;22.108;2023-08-08T17:03:57;101518.39;;;28.89;30.24
75188;BME280;63762;51.334;22.108;2023-08-08T17:14:05;101528.34;;;25.19;37.01
75188;BME280;63762;51.334;22.108;2023-08-08T17:24:11;101538.76;;;22.98;40.81
75188;BME280;63762;51.334;22.108;2023-08-08T17:34:19;101540.46;;;21.59;43.77
75188;BME280;63762;51.334;22.108;2023-08-08T17:44:26;101538.35;;;20.73;46.62
75188;BME280;63762;51.334;22.108;2023-08-08T17:54:33;101551.04;;;20.07;47.91
75188;BME280;63762;51.334;22.108;2023-08-08T18:04:40;101553.07;;;19.71;48.74
75188;BME280;63762;51.334;22.108;2023-08-08T18:14:47;101576.29;;;19.49;51.04
75188;BME280;63762;51.334;22.108;2023-08-08T18:24:54;101567.13;;;19.23;51.01
75188;BME280;63762;51.334;22.108;2023-08-08T18:35:01;101573.70;;;18.95;51.79
75188;BME280;63762;51.334;22.108;2023-08-08T18:45:09;101575.02;;;18.74;52.53
75188;BME280;63762;51.334;22.108;2023-08-08T18:55:16;101588.34;;;18.50;52.92
75188;BME280;63762;51.334;22.108;2023-08-08T19:05:23;101581.85;;;18.24;53.86
75188;BME280;63762;51.334;22.108;2023-08-08T19:15:30;101586.84;;;17.92;54.62
75188;BME280;63762;51.334;22.108;2023-08-08T19:25:37;101585.48;;;17.68;55.43
75188;BME280;63762;51.334;22.108;2023-08-08T19:35:44;101589.22;;;17.58;55.80
75188;BME280;63762;51.334;22.108;2023-08-08T19:45:52;101594.98;;;17.45;56.25
75188;BME280;63762;51.334;22.108;2023-08-08T19:55:58;101588.09;;;17.41;56.89
75188;BME280;63762;51.334;22.108;2023-08-08T20:06:06;101588.95;;;17.13;57.76
75188;BME280;63762;51.334;22.108;2023-08-08T20:16:13;101592.80;;;16.92;58.84
75188;BME280;63762;51.334;22.108;2023-08-08T20:26:20;101586.18;;;16.75;59.65
75188;BME280;63762;51.334;22.108;2023-08-08T20:36:27;101591.62;;;16.75;59.97
75188;BME280;63762;51.334;22.108;2023-08-08T20:46:34;101590.02;;;16.63;60.32
75188;BME280;63762;51.334;22.108;2023-08-08T20:56:43;101589.55;;;16.49;61.04
75188;BME280;63762;51.334;22.108;2023-08-08T21:06:48;101589.59;;;16.28;61.64
75188;BME280;63762;51.334;22.108;2023-08-08T21:16:55;101572.41;;;16.18;62.36
75188;BME280;63762;51.334;22.108;2023-08-08T21:27:03;101589.21;;;16.03;62.79
75188;BME280;63762;51.334;22.108;2023-08-08T21:37:09;101577.69;;;15.80;63.27
75188;BME280;63762;51.334;22.108;2023-08-08T21:47:17;101574.50;;;15.75;63.82
75188;BME280;63762;51.334;22.108;2023-08-08T21:57:24;101576.47;;;15.73;63.65
75188;BME280;63762;51.334;22.108;2023-08-08T22:07:32;101559.02;;;15.66;64.02
75188;BME280;63762;51.334;22.108;2023-08-08T22:17:38;101581.65;;;15.55;64.38
75188;BME280;63762;51.334;22.108;2023-08-08T22:27:45;101576.91;;;15.48;64.68
75188;BME280;63762;51.334;22.108;2023-08-08T22:37:52;101571.75;;;15.45;64.73
75188;BME280;63762;51.334;22.108;2023-08-08T22:48:00;101541.59;;;15.38;65.06
75188;BME280;63762;51.334;22.108;2023-08-08T22:58:06;101544.64;;;15.13;65.42
75188;BME280;63762;51.334;22.108;2023-08-08T23:08:14;101553.45;;;15.06;65.70
75188;BME280;63762;51.334;22.108;2023-08-08T23:18:21;101551.01;;;15.03;65.65
75188;BME280;63762;51.334;22.108;2023-08-08T23:28:28;101537.18;;;15.06;65.70
75188;BME280;63762;51.334;22.108;2023-08-08T23:38:35;101532.03;;;15.03;65.97
75188;BME280;63762;51.334;22.108;2023-08-08T23:48:42;101539.61;;;14.88;66.36
75188;BME280;63762;51.334;22.108;2023-08-08T23:58:49;101550.57;;;14.87;66.67
